Latest Coastal Weather Observations for Redcliffe

IDQ60701

Issued at 2:12 pm EST Wednesday 18 January 2017 (issued every 10 minutes, with the page automatically refreshed every 10 minutes)

About coastal observations | Map of coastal stations | Coastal observations for QLD | Marine services | Other Formats
Station Details ID: 040958 Name: REDCLIFFE Lat: -27.22 Lon: 153.09 Height: 12.6 m
Data from the previous 72 hours. | See also: Recent months at Redcliffe
Date/Time
EST
Temp
°C
Wind Pressure Rain since
9am
mm
Weather Cloud Vis
km
Sea
Height
m
Swell
Dir  Spd
kts
Gust
kts
hPa Trend Height
m
Period
s
Dir
18/02:00pm 31.5 NE 17 21 1009.6 - 0.0 - - - - - - -
18/01:30pm 31.6 NE 18 21 1010.0 - 0.0 - - - - - - -
18/01:00pm 31.3 NE 17 19 1010.4 - 0.0 - - - - - - -
18/12:30pm 31.2 NE 18 21 1010.9 - 0.0 - - - - - - -
18/12:00pm 31.1 NE 18 21 1011.3 - 0.0 - - - - - - -
18/11:30am 32.5 NE 16 18 1011.8 - 0.0 - - - - - - -
18/11:00am 31.9 NE 13 16 1012.3 - 0.0 - - - - - - -
18/10:30am 31.4 N 10 15 1012.8 - 0.0 - - - - - - -
18/10:00am 30.7 NNW 9 13 1013.1 - 0.0 - - - - - - -
18/09:30am 29.3 NNW 9 13 1013.6 - 0.0 - - - - - - -
18/09:00am 28.3 NNW 7 11 1014.0 - 0.0 - - - - - - -
18/08:30am 27.3 NNW 8 12 1014.2 - 0.0 - - - - - - -
18/08:00am 26.7 NNW 7 9 1014.2 - 0.0 - - - - - - -
18/07:30am 26.1 NW 5 7 1014.5 - 0.0 - - - - - - -
18/07:00am 25.3 NNW 6 7 1014.5 - 0.0 - - - - - - -
18/06:30am 24.5 NW 6 7 1014.3 - 0.0 - - - - - - -
18/06:00am 23.0 WNW 5 6 1013.8 - 0.0 - - - - - - -
18/05:30am 22.1 WNW 4 5 1013.6 - 0.0 - - - - - - -
18/05:00am 22.2 NW 6 7 1013.4 - 0.0 - - - - - - -
18/04:30am 23.1 NNW 7 9 1013.3 - 0.0 - - - - - - -
18/04:00am 23.7 NNW 7 9 1013.2 - 0.0 - - - - - - -
18/03:30am 24.3 N 9 12 1013.1 - 0.0 - - - - - - -
18/03:00am 24.7 N 11 15 1013.1 - 0.0 - - - - - - -
18/02:30am 24.7 N 11 17 1013.2 - 0.0 - - - - - - -
18/02:00am 24.7 NNW 9 14 1013.5 - 0.0 - - - - - - -
18/01:30am 24.9 NNW 9 14 1013.6 - 0.0 - - - - - - -
18/01:00am 25.0 N 9 14 1013.8 - 0.0 - - - - - - -
18/12:30am 25.2 N 9 13 1014.1 - 0.0 - - - - - - -
18/12:00am 25.3 N 8 10 1014.5 - 0.0 - - - - - - -
 
Date/Time
EST
Temp
°C
Wind Pressure Rain since
9am
mm
Weather Cloud Vis
km
Sea
Height
m
Swell
Dir  Spd
kts
Gust
kts
hPa Trend Height
m
Period
s
Dir
17/11:30pm 25.2 N 7 9 1014.9 - 0.0 - - - - - - -
17/11:00pm 24.8 NNW 7 10 1015.3 - 0.0 - - - - - - -
17/10:30pm 25.5 N 8 12 1015.6 - 0.0 - - - - - - -
17/10:00pm 25.9 N 9 12 1015.6 - 0.0 - - - - - - -
17/09:30pm 26.2 N 13 17 1015.6 - 0.0 - - - - - - -
17/09:00pm 26.4 N 15 18 1015.5 - 0.0 - - - - - - -
17/08:30pm 26.4 NNE 16 18 1015.4 - 0.0 - - - - - - -
17/08:00pm 26.6 N 15 17 1015.4 - 0.0 - - - - - - -
17/07:30pm 26.7 NNE 15 17 1015.3 - 0.0 - - - - - - -
17/07:00pm 26.8 NNE 15 18 1015.2 - 0.0 - - - - - - -
17/06:30pm 27.1 NNE 15 18 1014.9 - 0.0 - - - - - - -
17/06:00pm 27.5 NNE 15 17 1014.6 - 0.0 - - - - - - -
17/05:30pm 28.0 NNE 15 17 1014.5 - 0.0 - - - - - - -
17/05:00pm 28.4 NNE 15 18 1014.3 - 0.0 - - - - - - -
17/04:30pm 28.7 NNE 15 17 1014.2 - 0.0 - - - - - - -
17/04:00pm 29.5 NNE 15 17 1014.3 - 0.0 - - - - - - -
17/03:30pm 29.0 NNE 15 18 1014.3 - 0.0 - - - - - - -
17/03:00pm 29.3 NNE 15 17 1014.4 - 0.0 - - - - - - -
17/02:30pm 30.1 NE 15 17 1014.6 - 0.0 - - - - - - -
17/02:00pm 29.6 NE 14 16 1014.8 - 0.0 - - - - - - -
17/01:30pm 30.2 NE 12 14 1015.0 - 0.0 - - - - - - -
17/01:00pm 30.4 NE 13 14 1015.2 - 0.0 - - - - - - -
17/12:30pm 29.3 NE 13 15 1015.7 - 0.0 - - - - - - -
17/12:00pm 29.8 NE 11 14 1016.1 - 0.0 - - - - - - -
17/11:30am 28.6 NE 10 13 1016.5 - 0.0 - - - - - - -
17/11:00am 28.7 NE 9 11 1016.6 - 0.0 - - - - - - -
17/10:30am 28.8 NE 8 9 1016.8 - 0.0 - - - - - - -
17/10:00am 29.3 E 5 7 1016.9 - 0.0 - - - - - - -
17/09:30am 29.1 ESE 5 6 1017.0 - 0.0 - - - - - - -
17/09:00am 29.6 SE 5 6 1017.0 - 0.0 - - - - - - -
17/08:30am 28.5 SSE 7 8 1017.1 - 0.0 - - - - - - -
17/08:00am 28.6 S 6 7 1017.0 - 0.0 - - - - - - -
17/07:30am 27.1 S 5 6 1017.0 - 0.0 - - - - - - -
17/07:00am 26.0 SW 6 7 1016.9 - 0.0 - - - - - - -
17/06:30am 23.8 WSW 7 8 1016.7 - 0.0 - - - - - - -
17/06:00am 23.5 WSW 6 8 1016.4 - 0.0 - - - - - - -
17/05:30am 23.3 WSW 5 6 1016.0 - 0.0 - - - - - - -
17/05:00am 23.5 ENE 3 5 1015.7 - 0.0 - - - - - - -
17/04:30am 24.5 ENE 5 7 1015.4 - 0.0 - - - - - - -
17/04:00am 25.3 NE 6 7 1015.1 - 0.0 - - - - - - -
17/03:30am 25.3 NE 7 9 1014.9 - 0.0 - - - - - - -
17/03:00am 25.7 ENE 9 11 1014.9 - 0.0 - - - - - - -
17/02:30am 25.6 ENE 8 10 1015.1 - 0.0 - - - - - - -
17/02:00am 25.6 ENE 9 10 1015.2 - 0.0 - - - - - - -
17/01:30am 25.7 E 7 8 1015.3 - 0.0 - - - - - - -
17/01:00am 25.9 E 7 8 1015.5 - 0.0 - - - - - - -
17/12:30am 25.9 ENE 7 8 1015.6 - 0.0 - - - - - - -
17/12:00am 25.8 ENE 7 9 1015.8 - 0.0 - - - - - - -
 
Date/Time
EST
Temp
°C
Wind Pressure Rain since
9am
mm
Weather Cloud Vis
km
Sea
Height
m
Swell
Dir  Spd
kts
Gust
kts
hPa Trend Height
m
Period
s
Dir
16/11:30pm 26.0 E 8 10 1016.0 - 0.0 - - - - - - -
16/11:00pm 26.0 E 9 10 1016.3 - 0.0 - - - - - - -
16/10:30pm 26.1 E 8 10 1016.4 - 0.0 - - - - - - -
16/10:00pm 26.2 E 8 10 1016.5 - 0.0 - - - - - - -
16/09:30pm 26.3 E 9 11 1016.5 - 0.0 - - - - - - -
16/09:00pm 26.4 E 9 11 1016.6 - 0.0 - - - - - - -
16/08:30pm 26.5 E 9 11 1016.3 - 0.0 - - - - - - -
16/08:00pm 26.5 ENE 9 11 1016.1 - 0.0 - - - - - - -
16/07:30pm 26.6 E 10 12 1015.9 - 0.0 - - - - - - -
16/07:00pm 26.8 E 10 12 1015.6 - 0.0 - - - - - - -
16/06:30pm 27.1 ENE 10 12 1015.2 - 0.0 - - - - - - -
16/06:00pm 27.6 E 11 13 1014.9 - 0.0 - - - - - - -
16/05:30pm 27.7 E 11 13 1014.5 - 0.0 - - - - - - -
16/05:00pm 27.8 E 12 14 1014.1 - 0.0 - - - - - - -
16/04:30pm 28.2 E 14 15 1013.9 - 0.0 - - - - - - -
16/04:00pm 28.5 ESE 15 17 1013.7 - 0.0 - - - - - - -
16/03:30pm 28.3 E 13 15 1013.7 - 0.0 - - - - - - -
16/03:00pm 28.3 E 13 15 1013.8 - 0.0 - - - - - - -
16/02:30pm 28.3 ESE 12 14 1013.8 - 0.0 - - - - - - -
16/02:00pm 28.4 ESE 13 15 1014.0 - 0.0 - - - - - - -
16/01:30pm 28.3 ESE 12 14 1014.3 - 0.0 - - - - - - -
16/01:00pm 28.7 ESE 12 14 1014.3 - 0.0 - - - - - - -
16/12:30pm 28.1 ESE 12 14 1014.4 - 0.0 - - - - - - -
16/12:00pm 28.6 ESE 12 14 1014.6 - 0.0 - - - - - - -
16/11:30am 28.5 ESE 12 14 1014.8 - 0.0 - - - - - - -
16/11:00am 29.0 SE 8 10 1015.0 - 0.0 - - - - - - -
16/10:30am 27.9 SSE 12 15 1015.1 - 0.0 - - - - - - -
16/10:00am 28.3 SE 11 13 1015.2 - 0.0 - - - - - - -
16/09:30am 28.3 SE 11 14 1015.1 - 0.0 - - - - - - -
16/09:00am 27.9 SE 12 14 1015.1 - 0.0 - - - - - - -
16/08:30am 27.7 SE 12 14 1015.0 - 0.0 - - - - - - -
16/08:00am 27.1 SSE 14 16 1014.7 - 0.0 - - - - - - -
16/07:30am 25.6 SSE 12 15 1014.6 - 0.0 - - - - - - -
16/07:00am 25.2 S 14 15 1014.4 - 0.0 - - - - - - -
16/06:30am 24.8 S 14 18 1014.3 - 0.0 - - - - - - -
16/06:00am 24.7 S 13 16 1013.6 - 0.0 - - - - - - -
16/05:30am 24.7 SSE 13 17 1013.2 - 0.0 - - - - - - -
16/05:00am 24.7 S 11 14 1012.7 - 0.0 - - - - - - -
16/04:30am 25.0 SSE 12 15 1012.4 - 0.0 - - - - - - -
16/04:00am 25.7 SE 13 16 1012.0 - 0.0 - - - - - - -
16/03:30am 25.2 SSE 12 15 1011.8 - 0.0 - - - - - - -
16/03:00am 25.3 SSE 11 14 1011.8 - 0.0 - - - - - - -
16/02:30am 25.6 SSE 13 15 1011.9 - 0.0 - - - - - - -
16/02:00am 25.7 SE 12 14 1012.2 - 0.0 - - - - - - -
16/01:30am 25.8 SE 13 14 1012.3 - 0.0 - - - - - - -
16/01:00am 25.9 SE 15 17 1012.5 - 0.0 - - - - - - -
16/12:30am 25.8 SE 15 16 1012.8 - 0.0 - - - - - - -
16/12:00am 25.9 SE 17 18 1013.0 - 0.0 - - - - - - -
 
Date/Time
EST
Temp
°C
Wind Pressure Rain since
9am
mm
Weather Cloud Vis
km
Sea
Height
m
Swell
Dir  Spd
kts
Gust
kts
hPa Trend Height
m
Period
s
Dir
15/11:30pm 26.3 SE 16 18 1013.3 - 0.0 - - - - - - -
15/11:00pm 26.9 NE 8 9 1013.2 - 0.0 - - - - - - -
15/10:30pm 26.9 NE 9 10 1013.4 - 0.0 - - - - - - -
15/10:00pm 27.1 NE 10 12 1013.1 - 0.0 - - - - - - -
15/09:30pm 27.1 NE 11 14 1013.3 - 0.0 - - - - - - -
15/09:00pm 27.2 NE 13 15 1012.9 - 0.0 - - - - - - -
15/08:30pm 27.2 NE 13 16 1012.4 - 0.0 - - - - - - -
15/08:00pm 27.2 NE 15 19 1011.8 - 0.0 - - - - - - -
15/07:30pm 27.2 NE 16 19 1011.4 - 0.0 - - - - - - -
15/07:00pm 27.4 NE 18 21 1010.7 - 0.0 - - - - - - -
15/06:30pm 27.3 NNE 19 22 1009.8 - 0.0 - - - - - - -
15/06:00pm 27.4 NE 17 20 1009.7 - 0.0 - - - - - - -
15/05:30pm 27.5 NE 19 22 1009.0 - 0.0 - - - - - - -
15/05:00pm 27.9 NE 17 20 1008.7 - 0.0 - - - - - - -
15/04:30pm 28.8 NE 16 18 1008.5 - 0.0 - - - - - - -
15/04:00pm 28.4 NE 15 16 1008.4 - 0.0 - - - - - - -
15/03:30pm 29.0 NE 15 17 1008.0 - 0.0 - - - - - - -
15/03:00pm 29.2 NE 14 16 1008.0 - 0.0 - - - - - - -
15/02:30pm 28.7 NE 14 16 1008.6 - 0.0 - - - - - - -

Other Formats:

Comma delimited format used in spreadsheet applications
http://www.bom.gov.au/fwo/IDQ60701/IDQ60701.95591.axf

JavaScript Object Notation format (JSON) in row-major order
http://www.bom.gov.au/fwo/IDQ60701/IDQ60701.95591.json